sensor_id;sensor_type;location;lat;lon;timestamp;temperature;humidity
8485;DHT22;34555;49.34829940;8.43506100;2022-07-05T00:00:36;24.20;56.10
8485;DHT22;34555;49.34829940;8.43506100;2022-07-05T00:03:01;24.30;56.20
8485;DHT22;34555;49.34829940;8.43506100;2022-07-05T00:05:27;24.20;56.10
8485;DHT22;34555;49.34829940;8.43506100;2022-07-05T00:07:53;24.20;56.20
8485;DHT22;34555;49.34829940;8.43506100;2022-07-05T00:10:18;24.30;56.20
8485;DHT22;34555;49.34829940;8.43506100;2022-07-05T00:12:44;24.30;56.10
8485;DHT22;34555;49.34829940;8.43506100;2022-07-05T00:15:10;24.30;56.10
8485;DHT22;34555;49.34829940;8.43506100;2022-07-05T00:17:35;24.20;56.10
8485;DHT22;34555;49.34829940;8.43506100;2022-07-05T00:20:01;24.20;56.20
8485;DHT22;34555;49.34829940;8.43506100;2022-07-05T00:22:27;24.20;56.20
8485;DHT22;34555;49.34829940;8.43506100;2022-07-05T00:24:53;24.20;56.20
8485;DHT22;34555;49.34829940;8.43506100;2022-07-05T00:27:19;24.10;56.10
8485;DHT22;34555;49.34829940;8.43506100;2022-07-05T00:29:45;24.20;56.10
8485;DHT22;34555;49.34829940;8.43506100;2022-07-05T00:32:10;24.20;56.10
8485;DHT22;34555;49.34829940;8.43506100;2022-07-05T00:34:36;24.20;56.20
8485;DHT22;34555;49.34829940;8.43506100;2022-07-05T00:37:01;24.10;56.20
8485;DHT22;34555;49.34829940;8.43506100;2022-07-05T00:39:27;24.20;56.20
8485;DHT22;34555;49.34829940;8.43506100;2022-07-05T00:41:53;24.20;56.20
8485;DHT22;34555;49.34829940;8.43506100;2022-07-05T00:44:31;24.10;56.00
8485;DHT22;34555;49.34829940;8.43506100;2022-07-05T00:46:58;24.10;56.10
8485;DHT22;34555;49.34829940;8.43506100;2022-07-05T00:49:23;24.10;56.10
8485;DHT22;34555;49.34829940;8.43506100;2022-07-05T00:51:49;24.10;56.00
8485;DHT22;34555;49.34829940;8.43506100;2022-07-05T00:54:15;24.10;56.00
8485;DHT22;34555;49.34829940;8.43506100;2022-07-05T00:56:40;24.20;56.00
8485;DHT22;34555;49.34829940;8.43506100;2022-07-05T00:59:06;24.10;55.90
8485;DHT22;34555;49.34829940;8.43506100;2022-07-05T01:01:31;24.10;55.90
8485;DHT22;34555;49.34829940;8.43506100;2022-07-05T01:03:57;24.10;56.10
8485;DHT22;34555;49.34829940;8.43506100;2022-07-05T01:06:23;24.10;56.20
8485;DHT22;34555;49.34829940;8.43506100;2022-07-05T01:08:48;24.00;56.10
8485;DHT22;34555;49.34829940;8.43506100;2022-07-05T01:11:15;24.00;56.50
8485;DHT22;34555;49.34829940;8.43506100;2022-07-05T01:13:40;24.00;56.40
8485;DHT22;34555;49.34829940;8.43506100;2022-07-05T01:16:07;24.10;56.40
8485;DHT22;34555;49.34829940;8.43506100;2022-07-05T01:18:33;24.00;56.50
8485;DHT22;34555;49.34829940;8.43506100;2022-07-05T01:20:59;24.10;56.50
8485;DHT22;34555;49.34829940;8.43506100;2022-07-05T01:23:30;24.10;56.50
8485;DHT22;34555;49.34829940;8.43506100;2022-07-05T01:25:58;24.10;56.50
8485;DHT22;34555;49.34829940;8.43506100;2022-07-05T01:28:25;24.10;56.40
8485;DHT22;34555;49.34829940;8.43506100;2022-07-05T01:30:51;24.10;56.60
8485;DHT22;34555;49.34829940;8.43506100;2022-07-05T01:33:17;24.00;56.50
8485;DHT22;34555;49.34829940;8.43506100;2022-07-05T01:35:42;24.10;56.60
8485;DHT22;34555;49.34829940;8.43506100;2022-07-05T01:38:10;24.10;56.40
8485;DHT22;34555;49.34829940;8.43506100;2022-07-05T01:40:36;24.10;56.50
8485;DHT22;34555;49.34829940;8.43506100;2022-07-05T01:43:04;24.10;56.50
8485;DHT22;34555;49.34829940;8.43506100;2022-07-05T01:45:29;24.00;56.40
8485;DHT22;34555;49.34829940;8.43506100;2022-07-05T01:48:12;24.10;56.40
8485;DHT22;34555;49.34829940;8.43506100;2022-07-05T01:50:45;24.10;56.40
8485;DHT22;34555;49.34829940;8.43506100;2022-07-05T01:53:27;24.00;56.30
8485;DHT22;34555;49.34829940;8.43506100;2022-07-05T01:55:54;24.00;56.40
8485;DHT22;34555;49.34829940;8.43506100;2022-07-05T01:58:21;24.00;56.30
8485;DHT22;34555;49.34829940;8.43506100;2022-07-05T02:00:48;24.00;56.30
8485;DHT22;34555;49.34829940;8.43506100;2022-07-05T02:03:15;24.00;56.20
8485;DHT22;34555;49.34829940;8.43506100;2022-07-05T02:05:41;24.00;56.20
8485;DHT22;34555;49.34829940;8.43506100;2022-07-05T02:08:07;24.00;56.20
8485;DHT22;34555;49.34829940;8.43506100;2022-07-05T02:10:35;24.00;56.20
8485;DHT22;34555;49.34829940;8.43506100;2022-07-05T02:13:01;24.10;56.30
8485;DHT22;34555;49.34829940;8.43506100;2022-07-05T02:15:29;24.00;56.20
8485;DHT22;34555;49.34829940;8.43506100;2022-07-05T02:17:54;24.10;56.30
8485;DHT22;34555;49.34829940;8.43506100;2022-07-05T02:20:20;24.10;56.30
8485;DHT22;34555;49.34829940;8.43506100;2022-07-05T02:22:45;24.00;56.30
8485;DHT22;34555;49.34829940;8.43506100;2022-07-05T02:25:11;23.90;56.50
8485;DHT22;34555;49.34829940;8.43506100;2022-07-05T02:27:37;23.90;56.50
8485;DHT22;34555;49.34829940;8.43506100;2022-07-05T02:30:02;23.90;56.50
8485;DHT22;34555;49.34829940;8.43506100;2022-07-05T02:32:28;23.90;56.50
8485;DHT22;34555;49.34829940;8.43506100;2022-07-05T02:34:57;23.90;56.60
8485;DHT22;34555;49.34829940;8.43506100;2022-07-05T02:37:22;23.90;56.70
8485;DHT22;34555;49.34829940;8.43506100;2022-07-05T02:39:48;23.90;56.60
8485;DHT22;34555;49.34829940;8.43506100;2022-07-05T02:42:13;23.90;56.60
8485;DHT22;34555;49.34829940;8.43506100;2022-07-05T02:44:39;23.90;56.60
8485;DHT22;34555;49.34829940;8.43506100;2022-07-05T02:47:04;23.90;56.60
8485;DHT22;34555;49.34829940;8.43506100;2022-07-05T02:49:30;23.90;56.50
8485;DHT22;34555;49.34829940;8.43506100;2022-07-05T02:51:55;23.90;56.60
8485;DHT22;34555;49.34829940;8.43506100;2022-07-05T02:54:22;23.90;56.50
8485;DHT22;34555;49.34829940;8.43506100;2022-07-05T02:56:47;23.90;56.60
8485;DHT22;34555;49.34829940;8.43506100;2022-07-05T02:59:13;23.90;56.60
8485;DHT22;34555;49.34829940;8.43506100;2022-07-05T03:01:38;23.80;56.70
8485;DHT22;34555;49.34829940;8.43506100;2022-07-05T03:04:04;23.80;56.60
8485;DHT22;34555;49.34829940;8.43506100;2022-07-05T03:06:31;23.90;56.60
8485;DHT22;34555;49.34829940;8.43506100;2022-07-05T03:08:57;23.90;56.60
8485;DHT22;34555;49.34829940;8.43506100;2022-07-05T03:11:22;23.90;56.70
8485;DHT22;34555;49.34829940;8.43506100;2022-07-05T03:13:48;23.90;56.70
8485;DHT22;34555;49.34829940;8.43506100;2022-07-05T03:16:14;23.80;56.60
8485;DHT22;34555;49.34829940;8.43506100;2022-07-05T03:18:39;23.90;56.80
8485;DHT22;34555;49.34829940;8.43506100;2022-07-05T03:21:05;23.90;56.80
8485;DHT22;34555;49.34829940;8.43506100;2022-07-05T03:23:30;23.80;56.70
8485;DHT22;34555;49.34829940;8.43506100;2022-07-05T03:25:56;23.80;56.70
8485;DHT22;34555;49.34829940;8.43506100;2022-07-05T03:28:21;23.80;56.70
8485;DHT22;34555;49.34829940;8.43506100;2022-07-05T03:30:47;23.70;56.70
8485;DHT22;34555;49.34829940;8.43506100;2022-07-05T03:33:12;23.80;57.50
8485;DHT22;34555;49.34829940;8.43506100;2022-07-05T03:35:38;23.80;57.00
8485;DHT22;34555;49.34829940;8.43506100;2022-07-05T03:38:04;23.80;56.80
8485;DHT22;34555;49.34829940;8.43506100;2022-07-05T03:40:29;23.80;56.80
8485;DHT22;34555;49.34829940;8.43506100;2022-07-05T03:42:55;23.80;56.90
8485;DHT22;34555;49.34829940;8.43506100;2022-07-05T03:45:20;23.80;56.80
8485;DHT22;34555;49.34829940;8.43506100;2022-07-05T03:47:46;23.80;56.70
8485;DHT22;34555;49.34829940;8.43506100;2022-07-05T03:50:12;23.80;56.90
8485;DHT22;34555;49.34829940;8.43506100;2022-07-05T03:52:37;23.70;56.90
8485;DHT22;34555;49.34829940;8.43506100;2022-07-05T03:55:03;23.60;56.90
8485;DHT22;34555;49.34829940;8.43506100;2022-07-05T03:57:29;23.70;57.20
8485;DHT22;34555;49.34829940;8.43506100;2022-07-05T03:59:55;23.70;57.00
8485;DHT22;34555;49.34829940;8.43506100;2022-07-05T04:02:20;23.70;57.00
8485;DHT22;34555;49.34829940;8.43506100;2022-07-05T04:04:46;23.80;57.10
8485;DHT22;34555;49.34829940;8.43506100;2022-07-05T04:07:12;23.80;57.10
8485;DHT22;34555;49.34829940;8.43506100;2022-07-05T04:09:37;23.70;57.10
8485;DHT22;34555;49.34829940;8.43506100;2022-07-05T04:12:03;23.70;57.10
8485;DHT22;34555;49.34829940;8.43506100;2022-07-05T04:14:30;23.70;57.10
8485;DHT22;34555;49.34829940;8.43506100;2022-07-05T04:16:55;23.70;57.00
8485;DHT22;34555;49.34829940;8.43506100;2022-07-05T04:19:21;23.70;57.00
8485;DHT22;34555;49.34829940;8.43506100;2022-07-05T04:21:47;23.70;57.00
8485;DHT22;34555;49.34829940;8.43506100;2022-07-05T04:24:12;23.70;57.10
8485;DHT22;34555;49.34829940;8.43506100;2022-07-05T04:26:38;23.70;57.10
8485;DHT22;34555;49.34829940;8.43506100;2022-07-05T04:29:03;23.70;57.20
8485;DHT22;34555;49.34829940;8.43506100;2022-07-05T04:31:29;23.60;57.10
8485;DHT22;34555;49.34829940;8.43506100;2022-07-05T04:33:54;23.60;57.30
8485;DHT22;34555;49.34829940;8.43506100;2022-07-05T04:36:20;23.50;57.20
8485;DHT22;34555;49.34829940;8.43506100;2022-07-05T04:38:45;23.60;57.40
8485;DHT22;34555;49.34829940;8.43506100;2022-07-05T04:41:11;23.70;57.40
8485;DHT22;34555;49.34829940;8.43506100;2022-07-05T04:43:37;23.70;57.40
8485;DHT22;34555;49.34829940;8.43506100;2022-07-05T04:46:02;23.70;57.40
8485;DHT22;34555;49.34829940;8.43506100;2022-07-05T04:48:28;23.60;57.50
8485;DHT22;34555;49.34829940;8.43506100;2022-07-05T04:50:53;23.60;57.50
8485;DHT22;34555;49.34829940;8.43506100;2022-07-05T04:53:19;23.50;57.50
8485;DHT22;34555;49.34829940;8.43506100;2022-07-05T04:55:44;23.60;58.00
8485;DHT22;34555;49.34829940;8.43506100;2022-07-05T04:58:10;23.60;57.50
8485;DHT22;34555;49.34829940;8.43506100;2022-07-05T05:00:36;23.50;57.60
8485;DHT22;34555;49.34829940;8.43506100;2022-07-05T05:03:02;23.60;57.70
8485;DHT22;34555;49.34829940;8.43506100;2022-07-05T05:05:28;23.60;57.70
8485;DHT22;34555;49.34829940;8.43506100;2022-07-05T05:07:53;23.30;58.00
8485;DHT22;34555;49.34829940;8.43506100;2022-07-05T05:10:19;23.50;58.30
8485;DHT22;34555;49.34829940;8.43506100;2022-07-05T05:12:44;23.70;57.90
8485;DHT22;34555;49.34829940;8.43506100;2022-07-05T05:15:10;23.80;57.90
8485;DHT22;34555;49.34829940;8.43506100;2022-07-05T05:17:40;23.90;58.00
8485;DHT22;34555;49.34829940;8.43506100;2022-07-05T05:20:17;23.90;58.00
8485;DHT22;34555;49.34829940;8.43506100;2022-07-05T05:22:44;23.90;58.00
8485;DHT22;34555;49.34829940;8.43506100;2022-07-05T05:25:11;23.90;58.00
8485;DHT22;34555;49.34829940;8.43506100;2022-07-05T05:27:45;23.90;58.00
8485;DHT22;34555;49.34829940;8.43506100;2022-07-05T05:30:12;23.90;58.00
8485;DHT22;34555;49.34829940;8.43506100;2022-07-05T05:32:38;23.90;58.00
8485;DHT22;34555;49.34829940;8.43506100;2022-07-05T05:35:16;23.90;58.00
8485;DHT22;34555;49.34829940;8.43506100;2022-07-05T05:37:53;23.90;58.00
8485;DHT22;34555;49.34829940;8.43506100;2022-07-05T05:40:21;23.90;58.00
8485;DHT22;34555;49.34829940;8.43506100;2022-07-05T05:42:47;24.00;58.00
8485;DHT22;34555;49.34829940;8.43506100;2022-07-05T05:45:13;23.90;58.00
8485;DHT22;34555;49.34829940;8.43506100;2022-07-05T05:50:10;24.00;58.10
8485;DHT22;34555;49.34829940;8.43506100;2022-07-05T05:52:36;24.00;58.10
8485;DHT22;34555;49.34829940;8.43506100;2022-07-05T05:55:01;24.00;58.00
8485;DHT22;34555;49.34829940;8.43506100;2022-07-05T05:57:27;24.00;58.10
8485;DHT22;34555;49.34829940;8.43506100;2022-07-05T05:59:52;24.00;58.00
8485;DHT22;34555;49.34829940;8.43506100;2022-07-05T06:02:18;24.00;58.10
8485;DHT22;34555;49.34829940;8.43506100;2022-07-05T06:04:43;24.00;58.00
8485;DHT22;34555;49.34829940;8.43506100;2022-07-05T06:07:09;24.00;58.00
8485;DHT22;34555;49.34829940;8.43506100;2022-07-05T06:09:34;24.00;58.00
8485;DHT22;34555;49.34829940;8.43506100;2022-07-05T06:12:00;24.00;58.00
8485;DHT22;34555;49.34829940;8.43506100;2022-07-05T06:14:25;24.00;58.00
8485;DHT22;34555;49.34829940;8.43506100;2022-07-05T06:16:51;24.00;58.00
8485;DHT22;34555;49.34829940;8.43506100;2022-07-05T06:19:16;24.00;58.00
8485;DHT22;34555;49.34829940;8.43506100;2022-07-05T06:21:42;24.00;58.00
8485;DHT22;34555;49.34829940;8.43506100;2022-07-05T06:24:07;24.00;58.00
8485;DHT22;34555;49.34829940;8.43506100;2022-07-05T06:26:33;24.00;58.00
8485;DHT22;34555;49.34829940;8.43506100;2022-07-05T06:28:58;24.00;58.00
8485;DHT22;34555;49.34829940;8.43506100;2022-07-05T06:31:24;24.00;58.00
8485;DHT22;34555;49.34829940;8.43506100;2022-07-05T06:33:49;24.10;58.10
8485;DHT22;34555;49.34829940;8.43506100;2022-07-05T06:36:15;24.00;58.60
8485;DHT22;34555;49.34829940;8.43506100;2022-07-05T06:38:40;24.00;58.00
8485;DHT22;34555;49.34829940;8.43506100;2022-07-05T06:41:06;24.00;58.00
8485;DHT22;34555;49.34829940;8.43506100;2022-07-05T06:43:31;24.10;58.10
8485;DHT22;34555;49.34829940;8.43506100;2022-07-05T06:45:57;24.10;58.10
8485;DHT22;34555;49.34829940;8.43506100;2022-07-05T06:48:22;24.10;58.20
8485;DHT22;34555;49.34829940;8.43506100;2022-07-05T06:50:48;24.10;58.10
8485;DHT22;34555;49.34829940;8.43506100;2022-07-05T06:53:13;24.00;58.10
8485;DHT22;34555;49.34829940;8.43506100;2022-07-05T06:55:39;24.00;58.00
8485;DHT22;34555;49.34829940;8.43506100;2022-07-05T06:58:09;24.10;58.40
8485;DHT22;34555;49.34829940;8.43506100;2022-07-05T07:00:35;24.10;58.40
8485;DHT22;34555;49.34829940;8.43506100;2022-07-05T07:03:01;24.10;58.40
8485;DHT22;34555;49.34829940;8.43506100;2022-07-05T07:05:26;24.10;58.40
8485;DHT22;34555;49.34829940;8.43506100;2022-07-05T07:07:52;24.10;58.40
8485;DHT22;34555;49.34829940;8.43506100;2022-07-05T07:10:37;24.10;58.50
8485;DHT22;34555;49.34829940;8.43506100;2022-07-05T07:13:03;24.20;58.70
8485;DHT22;34555;49.34829940;8.43506100;2022-07-05T07:15:29;24.20;58.90
8485;DHT22;34555;49.34829940;8.43506100;2022-07-05T07:17:55;24.20;58.90
8485;DHT22;34555;49.34829940;8.43506100;2022-07-05T07:20:21;24.30;59.00
8485;DHT22;34555;49.34829940;8.43506100;2022-07-05T07:22:47;24.30;59.00
8485;DHT22;34555;49.34829940;8.43506100;2022-07-05T07:25:12;24.30;59.10
8485;DHT22;34555;49.34829940;8.43506100;2022-07-05T07:27:45;24.30;59.10
8485;DHT22;34555;49.34829940;8.43506100;2022-07-05T07:30:18;24.30;59.20
8485;DHT22;34555;49.34829940;8.43506100;2022-07-05T07:32:45;24.30;59.20
8485;DHT22;34555;49.34829940;8.43506100;2022-07-05T07:35:11;24.30;59.20
8485;DHT22;34555;49.34829940;8.43506100;2022-07-05T07:37:37;24.30;59.20
8485;DHT22;34555;49.34829940;8.43506100;2022-07-05T07:40:03;24.30;59.20
8485;DHT22;34555;49.34829940;8.43506100;2022-07-05T07:42:29;24.30;59.30
8485;DHT22;34555;49.34829940;8.43506100;2022-07-05T07:44:55;24.30;59.50
8485;DHT22;34555;49.34829940;8.43506100;2022-07-05T07:47:20;24.30;59.40
8485;DHT22;34555;49.34829940;8.43506100;2022-07-05T07:49:46;24.30;59.40
8485;DHT22;34555;49.34829940;8.43506100;2022-07-05T07:52:11;24.30;59.40
8485;DHT22;34555;49.34829940;8.43506100;2022-07-05T07:54:37;24.30;59.50
8485;DHT22;34555;49.34829940;8.43506100;2022-07-05T07:57:03;24.30;59.50
8485;DHT22;34555;49.34829940;8.43506100;2022-07-05T07:59:31;24.30;59.50
8485;DHT22;34555;49.34829940;8.43506100;2022-07-05T08:01:56;24.30;59.50
8485;DHT22;34555;49.34829940;8.43506100;2022-07-05T08:04:22;24.30;59.50
8485;DHT22;34555;49.34829940;8.43506100;2022-07-05T08:06:47;24.30;59.50
8485;DHT22;34555;49.34829940;8.43506100;2022-07-05T08:09:14;24.30;59.50
8485;DHT22;34555;49.34829940;8.43506100;2022-07-05T08:11:40;24.40;59.50
8485;DHT22;34555;49.34829940;8.43506100;2022-07-05T08:14:06;24.40;59.50
8485;DHT22;34555;49.34829940;8.43506100;2022-07-05T08:16:32;24.40;59.50
8485;DHT22;34555;49.34829940;8.43506100;2022-07-05T08:18:57;24.40;59.50
8485;DHT22;34555;49.34829940;8.43506100;2022-07-05T08:21:42;24.30;59.40
8485;DHT22;34555;49.34829940;8.43506100;2022-07-05T08:24:10;24.40;59.40
8485;DHT22;34555;49.34829940;8.43506100;2022-07-05T08:26:36;24.40;59.40
8485;DHT22;34555;49.34829940;8.43506100;2022-07-05T08:29:07;24.40;59.40
8485;DHT22;34555;49.34829940;8.43506100;2022-07-05T08:31:35;24.40;59.30
8485;DHT22;34555;49.34829940;8.43506100;2022-07-05T08:34:01;24.40;59.30
8485;DHT22;34555;49.34829940;8.43506100;2022-07-05T08:36:27;24.40;59.40
8485;DHT22;34555;49.34829940;8.43506100;2022-07-05T08:38:53;24.40;59.30
8485;DHT22;34555;49.34829940;8.43506100;2022-07-05T08:41:21;24.40;59.30
8485;DHT22;34555;49.34829940;8.43506100;2022-07-05T08:43:49;24.50;60.00
8485;DHT22;34555;49.34829940;8.43506100;2022-07-05T08:46:16;24.50;59.40
8485;DHT22;34555;49.34829940;8.43506100;2022-07-05T08:48:43;24.50;59.40
8485;DHT22;34555;49.34829940;8.43506100;2022-07-05T08:51:16;24.50;59.40
8485;DHT22;34555;49.34829940;8.43506100;2022-07-05T08:53:43;24.40;59.30
8485;DHT22;34555;49.34829940;8.43506100;2022-07-05T08:56:10;24.50;59.40
8485;DHT22;34555;49.34829940;8.43506100;2022-07-05T08:58:36;24.50;59.40
8485;DHT22;34555;49.34829940;8.43506100;2022-07-05T09:01:02;24.50;59.40
8485;DHT22;34555;49.34829940;8.43506100;2022-07-05T09:03:32;24.50;59.40
8485;DHT22;34555;49.34829940;8.43506100;2022-07-05T09:06:00;24.50;59.40
8485;DHT22;34555;49.34829940;8.43506100;2022-07-05T09:08:30;24.50;59.40
8485;DHT22;34555;49.34829940;8.43506100;2022-07-05T09:11:01;24.50;59.30
8485;DHT22;34555;49.34829940;8.43506100;2022-07-05T09:13:27;24.50;59.30
8485;DHT22;34555;49.34829940;8.43506100;2022-07-05T09:15:52;24.60;59.40
8485;DHT22;34555;49.34829940;8.43506100;2022-07-05T09:18:40;24.50;59.40
8485;DHT22;34555;49.34829940;8.43506100;2022-07-05T09:21:25;24.60;59.40
8485;DHT22;34555;49.34829940;8.43506100;2022-07-05T09:23:56;24.60;59.40
8485;DHT22;34555;49.34829940;8.43506100;2022-07-05T09:26:38;24.50;59.40
8485;DHT22;34555;49.34829940;8.43506100;2022-07-05T09:29:09;24.50;59.40
8485;DHT22;34555;49.34829940;8.43506100;2022-07-05T09:31:48;24.50;59.30
8485;DHT22;34555;49.34829940;8.43506100;2022-07-05T09:34:16;24.50;59.40
8485;DHT22;34555;49.34829940;8.43506100;2022-07-05T09:37:02;24.60;59.40
8485;DHT22;34555;49.34829940;8.43506100;2022-07-05T09:42:18;24.60;59.50
8485;DHT22;34555;49.34829940;8.43506100;2022-07-05T09:47:19;24.60;59.50
8485;DHT22;34555;49.34829940;8.43506100;2022-07-05T09:49:50;24.60;59.40
8485;DHT22;34555;49.34829940;8.43506100;2022-07-05T09:52:27;24.60;59.40
8485;DHT22;34555;49.34829940;8.43506100;2022-07-05T09:55:04;24.60;59.30
8485;DHT22;34555;49.34829940;8.43506100;2022-07-05T09:57:30;24.60;59.40
8485;DHT22;34555;49.34829940;8.43506100;2022-07-05T10:00:00;24.60;59.40
8485;DHT22;34555;49.34829940;8.43506100;2022-07-05T10:02:41;24.60;59.50
8485;DHT22;34555;49.34829940;8.43506100;2022-07-05T10:05:08;24.70;59.40
8485;DHT22;34555;49.34829940;8.43506100;2022-07-05T10:07:35;24.70;59.30
8485;DHT22;34555;49.34829940;8.43506100;2022-07-05T10:10:01;24.70;59.30
8485;DHT22;34555;49.34829940;8.43506100;2022-07-05T10:12:28;24.70;59.30
8485;DHT22;34555;49.34829940;8.43506100;2022-07-05T10:14:57;24.70;59.30
8485;DHT22;34555;49.34829940;8.43506100;2022-07-05T10:17:24;24.80;59.30
8485;DHT22;34555;49.34829940;8.43506100;2022-07-05T10:19:51;24.70;59.20
8485;DHT22;34555;49.34829940;8.43506100;2022-07-05T10:22:18;24.80;59.40
8485;DHT22;34555;49.34829940;8.43506100;2022-07-05T10:24:44;24.80;59.30
8485;DHT22;34555;49.34829940;8.43506100;2022-07-05T10:27:10;24.80;59.50
8485;DHT22;34555;49.34829940;8.43506100;2022-07-05T10:29:37;24.80;59.30
8485;DHT22;34555;49.34829940;8.43506100;2022-07-05T10:32:07;24.80;59.30
8485;DHT22;34555;49.34829940;8.43506100;2022-07-05T10:34:34;24.80;59.30
8485;DHT22;34555;49.34829940;8.43506100;2022-07-05T10:37:00;24.80;59.30
8485;DHT22;34555;49.34829940;8.43506100;2022-07-05T10:39:26;24.80;59.30
8485;DHT22;34555;49.34829940;8.43506100;2022-07-05T10:41:53;24.80;59.30
8485;DHT22;34555;49.34829940;8.43506100;2022-07-05T10:44:29;24.90;59.50
8485;DHT22;34555;49.34829940;8.43506100;2022-07-05T10:47:10;24.90;59.50
8485;DHT22;34555;49.34829940;8.43506100;2022-07-05T10:49:37;24.90;59.40
8485;DHT22;34555;49.34829940;8.43506100;2022-07-05T10:52:24;24.90;59.40
8485;DHT22;34555;49.34829940;8.43506100;2022-07-05T10:55:22;24.90;59.50
8485;DHT22;34555;49.34829940;8.43506100;2022-07-05T11:00:44;25.00;59.50
8485;DHT22;34555;49.34829940;8.43506100;2022-07-05T11:03:35;25.00;59.50
8485;DHT22;34555;49.34829940;8.43506100;2022-07-05T11:06:02;24.90;59.40
8485;DHT22;34555;49.34829940;8.43506100;2022-07-05T11:09:13;25.00;59.50
8485;DHT22;34555;49.34829940;8.43506100;2022-07-05T11:11:14;24.90;59.40
8485;DHT22;34555;49.34829940;8.43506100;2022-07-05T11:13:40;24.90;59.50
8485;DHT22;34555;49.34829940;8.43506100;2022-07-05T11:18:54;25.00;59.60
8485;DHT22;34555;49.34829940;8.43506100;2022-07-05T11:21:29;25.00;59.50
8485;DHT22;34555;49.34829940;8.43506100;2022-07-05T11:24:18;25.00;59.60
8485;DHT22;34555;49.34829940;8.43506100;2022-07-05T11:26:44;25.00;59.60
8485;DHT22;34555;49.34829940;8.43506100;2022-07-05T11:32:12;25.00;59.60
8485;DHT22;34555;49.34829940;8.43506100;2022-07-05T11:34:42;25.00;59.60
8485;DHT22;34555;49.34829940;8.43506100;2022-07-05T11:39:43;25.00;59.50
8485;DHT22;34555;49.34829940;8.43506100;2022-07-05T11:42:09;25.00;59.50
8485;DHT22;34555;49.34829940;8.43506100;2022-07-05T11:44:36;25.10;59.50
8485;DHT22;34555;49.34829940;8.43506100;2022-07-05T11:47:02;25.20;59.40
8485;DHT22;34555;49.34829940;8.43506100;2022-07-05T11:49:30;25.30;59.10
8485;DHT22;34555;49.34829940;8.43506100;2022-07-05T11:51:57;25.30;59.10
8485;DHT22;34555;49.34829940;8.43506100;2022-07-05T11:54:24;25.30;59.10
8485;DHT22;34555;49.34829940;8.43506100;2022-07-05T11:56:50;25.30;59.10
8485;DHT22;34555;49.34829940;8.43506100;2022-07-05T11:59:20;25.30;59.10
8485;DHT22;34555;49.34829940;8.43506100;2022-07-05T12:01:46;25.30;59.10
8485;DHT22;34555;49.34829940;8.43506100;2022-07-05T12:04:19;25.30;59.10
8485;DHT22;34555;49.34829940;8.43506100;2022-07-05T12:06:45;25.40;59.20
8485;DHT22;34555;49.34829940;8.43506100;2022-07-05T12:09:13;25.40;59.20
8485;DHT22;34555;49.34829940;8.43506100;2022-07-05T12:11:39;25.40;59.20
8485;DHT22;34555;49.34829940;8.43506100;2022-07-05T12:14:23;25.40;59.20
8485;DHT22;34555;49.34829940;8.43506100;2022-07-05T12:17:00;25.50;59.20
8485;DHT22;34555;49.34829940;8.43506100;2022-07-05T12:19:34;25.40;59.20
8485;DHT22;34555;49.34829940;8.43506100;2022-07-05T12:22:00;25.50;59.20
8485;DHT22;34555;49.34829940;8.43506100;2022-07-05T12:24:25;25.50;59.20
8485;DHT22;34555;49.34829940;8.43506100;2022-07-05T12:26:51;25.50;59.20
8485;DHT22;34555;49.34829940;8.43506100;2022-07-05T12:29:17;25.50;59.30
8485;DHT22;34555;49.34829940;8.43506100;2022-07-05T12:32:00;25.50;59.20
8485;DHT22;34555;49.34829940;8.43506100;2022-07-05T12:34:26;25.50;59.30
8485;DHT22;34555;49.34829940;8.43506100;2022-07-05T12:36:52;25.60;59.30
8485;DHT22;34555;49.34829940;8.43506100;2022-07-05T12:39:18;25.60;59.30
8485;DHT22;34555;49.34829940;8.43506100;2022-07-05T12:41:44;25.60;59.30
8485;DHT22;34555;49.34829940;8.43506100;2022-07-05T12:44:09;25.60;59.30
8485;DHT22;34555;49.34829940;8.43506100;2022-07-05T12:46:39;25.60;59.30
8485;DHT22;34555;49.34829940;8.43506100;2022-07-05T12:49:06;25.70;59.30
8485;DHT22;34555;49.34829940;8.43506100;2022-07-05T12:51:33;25.60;59.30
8485;DHT22;34555;49.34829940;8.43506100;2022-07-05T12:54:00;25.60;59.30
8485;DHT22;34555;49.34829940;8.43506100;2022-07-05T12:56:52;25.60;59.30
8485;DHT22;34555;49.34829940;8.43506100;2022-07-05T12:59:36;25.60;59.20
8485;DHT22;34555;49.34829940;8.43506100;2022-07-05T13:02:03;25.60;59.10
8485;DHT22;34555;49.34829940;8.43506100;2022-07-05T13:04:29;25.70;59.00
8485;DHT22;34555;49.34829940;8.43506100;2022-07-05T13:06:59;25.70;58.70
8485;DHT22;34555;49.34829940;8.43506100;2022-07-05T13:12:14;25.70;58.50
8485;DHT22;34555;49.34829940;8.43506100;2022-07-05T13:14:53;25.80;58.60
8485;DHT22;34555;49.34829940;8.43506100;2022-07-05T13:17:21;25.90;58.30
8485;DHT22;34555;49.34829940;8.43506100;2022-07-05T13:19:48;26.00;58.40
8485;DHT22;34555;49.34829940;8.43506100;2022-07-05T13:22:14;25.90;58.30
8485;DHT22;34555;49.34829940;8.43506100;2022-07-05T13:24:41;25.90;58.80
8485;DHT22;34555;49.34829940;8.43506100;2022-07-05T13:27:07;26.00;58.70
8485;DHT22;34555;49.34829940;8.43506100;2022-07-05T13:29:33;26.10;58.30
8485;DHT22;34555;49.34829940;8.43506100;2022-07-05T13:31:59;26.10;59.00
8485;DHT22;34555;49.34829940;8.43506100;2022-07-05T13:34:25;26.20;58.40
8485;DHT22;34555;49.34829940;8.43506100;2022-07-05T13:36:55;26.00;58.50
8485;DHT22;34555;49.34829940;8.43506100;2022-07-05T13:39:22;26.00;58.80
8485;DHT22;34555;49.34829940;8.43506100;2022-07-05T13:41:51;25.90;58.90
8485;DHT22;34555;49.34829940;8.43506100;2022-07-05T13:44:17;25.90;58.90
8485;DHT22;34555;49.34829940;8.43506100;2022-07-05T13:46:43;25.80;59.00
8485;DHT22;34555;49.34829940;8.43506100;2022-07-05T13:49:09;25.80;59.30
8485;DHT22;34555;49.34829940;8.43506100;2022-07-05T13:51:35;25.80;59.40
8485;DHT22;34555;49.34829940;8.43506100;2022-07-05T13:54:00;25.80;59.50
8485;DHT22;34555;49.34829940;8.43506100;2022-07-05T13:56:26;25.90;59.50
8485;DHT22;34555;49.34829940;8.43506100;2022-07-05T13:58:52;25.90;59.50